Alcolu, SC

9:38 AM EST on December 05, 2016 (GMT -0500)
Kingsbury | | Change Station

Elev 161 ft 33.89 °N, 80.37 °W | Updated 43 seconds ago

Mostly Cloudy
Mostly Cloudy
48.4 °F
Feels Like 48 °F
N
0.0
Wind Variable Wind from SSE

Today
High -- | Low -- °F
--% Chance of Precip.
Yesterday
High -- | Low -- °F
Precip. -- in
Pressure 30.01 in
Visibility -9999.0 miles
Clouds Mostly Cloudy 500 ft
Mostly Cloudy 11000 ft
Windchill 48 °F
Dew Point 48 °F
Humidity 98%
Rainfall 0.00 in
Snow Depth Not available.
7:11 AM 5:12 PM
Waxing Crescent, 32% visible
METAR KSMS 051435Z AUTO 02004KT BKN005 BKN110 09/08 A3001 RMK AO2
Pressure 30.01 in
Visibility -9999.0 miles
Clouds Mostly Cloudy 500 ft
Mostly Cloudy 11000 ft
Windchill 48 °F
Dew Point 48 °F
Humidity 98%
Rainfall 0.00 in
Snow Depth Not available.
7:11 AM 5:12 PM
Waxing Crescent, 32% visible
METAR KSMS 051435Z AUTO 02004KT BKN005 BKN110 09/08 A3001 RMK AO2

10-Day Weather Forecast

Almanac

Astronomy

Dec. 05, 2016 Rise Set
Actual Time
Civil Twilight
Nautical Twilight
Astronomical Twilight
Moon
Length of Visible Light
Length of Day
Tomorrow will be .
, % of the Moon is Illuminated

Today's Extremes

State Highs State Lows

Community

WunderPhotos

Upload Photos

1,955,782 photos uploaded!

WunderBlog® & News

Nearby

Air Quality

  Air Quality AQ Index Pollutant
Not available.

Snow Depth

Station Depth Elevation

Earthquake Activity

City Distance Mag. Time & Date
Minimum magnitude displayed is 2.5.

Coastal Water Temperatures

Place Temperature

Stations

Nearby Weather Stations

Station Location Temp. Windchill Dew Point Humidity Wind Precip. Elev Updated Type
                   

Watches & Warnings

There are currently no watches in effect.